sensor_id;sensor_type;location;lat;lon;timestamp;P1;durP1;ratioP1;P2;durP2;ratioP2
4674;SDS011;2351;50.812;12.872;2022-09-01T00:00:33;5.03;;;3.67;;
4674;SDS011;2351;50.812;12.872;2022-09-01T00:03:04;6.07;;;3.73;;
4674;SDS011;2351;50.812;12.872;2022-09-01T00:05:36;4.53;;;3.73;;
4674;SDS011;2351;50.812;12.872;2022-09-01T00:08:07;5.07;;;3.93;;
4674;SDS011;2351;50.812;12.872;2022-09-01T00:10:39;5.07;;;3.30;;
4674;SDS011;2351;50.812;12.872;2022-09-01T00:13:11;4.10;;;3.50;;
4674;SDS011;2351;50.812;12.872;2022-09-01T00:15:44;3.93;;;3.50;;
4674;SDS011;2351;50.812;12.872;2022-09-01T00:18:15;4.90;;;3.73;;
4674;SDS011;2351;50.812;12.872;2022-09-01T00:20:47;4.87;;;3.53;;
4674;SDS011;2351;50.812;12.872;2022-09-01T00:23:18;6.67;;;3.87;;
4674;SDS011;2351;50.812;12.872;2022-09-01T00:25:50;3.97;;;3.53;;
4674;SDS011;2351;50.812;12.872;2022-09-01T00:28:22;4.30;;;3.90;;
4674;SDS011;2351;50.812;12.872;2022-09-01T00:30:54;3.80;;;3.40;;
4674;SDS011;2351;50.812;12.872;2022-09-01T00:33:27;6.93;;;4.17;;
4674;SDS011;2351;50.812;12.872;2022-09-01T00:35:59;9.27;;;3.23;;
4674;SDS011;2351;50.812;12.872;2022-09-01T00:38:31;6.00;;;4.40;;
4674;SDS011;2351;50.812;12.872;2022-09-01T00:41:03;4.00;;;3.60;;
4674;SDS011;2351;50.812;12.872;2022-09-01T00:43:38;10.03;;;4.30;;
4674;SDS011;2351;50.812;12.872;2022-09-01T00:46:13;4.93;;;3.87;;
4674;SDS011;2351;50.812;12.872;2022-09-01T00:48:49;4.87;;;3.93;;
4674;SDS011;2351;50.812;12.872;2022-09-01T00:51:24;9.93;;;4.37;;
4674;SDS011;2351;50.812;12.872;2022-09-01T00:53:58;12.90;;;3.90;;
4674;SDS011;2351;50.812;12.872;2022-09-01T00:56:32;5.10;;;4.30;;
4674;SDS011;2351;50.812;12.872;2022-09-01T00:59:04;5.40;;;4.57;;
4674;SDS011;2351;50.812;12.872;2022-09-01T01:01:39;6.03;;;4.40;;
4674;SDS011;2351;50.812;12.872;2022-09-01T01:04:10;7.57;;;5.00;;
4674;SDS011;2351;50.812;12.872;2022-09-01T01:06:45;7.67;;;5.80;;
4674;SDS011;2351;50.812;12.872;2022-09-01T01:09:28;7.00;;;4.70;;
4674;SDS011;2351;50.812;12.872;2022-09-01T01:12:02;8.40;;;4.50;;
4674;SDS011;2351;50.812;12.872;2022-09-01T01:14:35;7.80;;;4.80;;
4674;SDS011;2351;50.812;12.872;2022-09-01T01:17:10;7.60;;;4.90;;
4674;SDS011;2351;50.812;12.872;2022-09-01T01:19:43;6.80;;;4.57;;
4674;SDS011;2351;50.812;12.872;2022-09-01T01:22:38;7.33;;;4.90;;
4674;SDS011;2351;50.812;12.872;2022-09-01T01:25:37;9.00;;;4.97;;
4674;SDS011;2351;50.812;12.872;2022-09-01T01:28:12;10.10;;;4.50;;
4674;SDS011;2351;50.812;12.872;2022-09-01T01:30:47;7.10;;;5.10;;
4674;SDS011;2351;50.812;12.872;2022-09-01T01:33:22;8.00;;;5.60;;
4674;SDS011;2351;50.812;12.872;2022-09-01T01:35:56;8.40;;;5.60;;
4674;SDS011;2351;50.812;12.872;2022-09-01T01:38:28;6.30;;;4.20;;
4674;SDS011;2351;50.812;12.872;2022-09-01T01:41:01;6.33;;;4.80;;
4674;SDS011;2351;50.812;12.872;2022-09-01T01:43:35;5.47;;;4.73;;
4674;SDS011;2351;50.812;12.872;2022-09-01T01:46:08;6.03;;;4.40;;
4674;SDS011;2351;50.812;12.872;2022-09-01T01:48:43;14.00;;;5.30;;
4674;SDS011;2351;50.812;12.872;2022-09-01T01:51:16;7.87;;;5.43;;
4674;SDS011;2351;50.812;12.872;2022-09-01T01:53:50;7.93;;;5.83;;
4674;SDS011;2351;50.812;12.872;2022-09-01T01:56:23;7.60;;;5.37;;
4674;SDS011;2351;50.812;12.872;2022-09-01T01:58:55;7.80;;;5.27;;
4674;SDS011;2351;50.812;12.872;2022-09-01T02:01:28;6.40;;;5.50;;
4674;SDS011;2351;50.812;12.872;2022-09-01T02:04:01;9.13;;;5.10;;
4674;SDS011;2351;50.812;12.872;2022-09-01T02:06:33;6.60;;;5.17;;
4674;SDS011;2351;50.812;12.872;2022-09-01T02:09:06;6.80;;;5.50;;
4674;SDS011;2351;50.812;12.872;2022-09-01T02:11:39;6.80;;;5.03;;
4674;SDS011;2351;50.812;12.872;2022-09-01T02:14:13;9.87;;;5.37;;
4674;SDS011;2351;50.812;12.872;2022-09-01T02:16:45;6.17;;;4.37;;
4674;SDS011;2351;50.812;12.872;2022-09-01T02:19:16;6.57;;;4.77;;
4674;SDS011;2351;50.812;12.872;2022-09-01T02:21:50;7.10;;;4.93;;
4674;SDS011;2351;50.812;12.872;2022-09-01T02:24:25;6.60;;;4.60;;
4674;SDS011;2351;50.812;12.872;2022-09-01T02:27:02;9.00;;;4.77;;
4674;SDS011;2351;50.812;12.872;2022-09-01T02:29:34;7.90;;;4.80;;
4674;SDS011;2351;50.812;12.872;2022-09-01T02:32:06;6.90;;;4.30;;
4674;SDS011;2351;50.812;12.872;2022-09-01T02:34:37;7.50;;;5.70;;
4674;SDS011;2351;50.812;12.872;2022-09-01T02:37:09;6.63;;;4.87;;
4674;SDS011;2351;50.812;12.872;2022-09-01T02:39:40;6.23;;;4.50;;
4674;SDS011;2351;50.812;12.872;2022-09-01T02:42:14;6.10;;;4.37;;
4674;SDS011;2351;50.812;12.872;2022-09-01T02:44:45;6.67;;;4.10;;
4674;SDS011;2351;50.812;12.872;2022-09-01T02:47:17;5.47;;;4.53;;
4674;SDS011;2351;50.812;12.872;2022-09-01T02:49:48;6.97;;;4.50;;
4674;SDS011;2351;50.812;12.872;2022-09-01T02:52:20;7.00;;;4.20;;
4674;SDS011;2351;50.812;12.872;2022-09-01T02:54:52;8.60;;;4.23;;
4674;SDS011;2351;50.812;12.872;2022-09-01T02:57:26;7.10;;;4.63;;
4674;SDS011;2351;50.812;12.872;2022-09-01T02:59:58;10.30;;;5.47;;
4674;SDS011;2351;50.812;12.872;2022-09-01T03:02:29;6.70;;;4.70;;
4674;SDS011;2351;50.812;12.872;2022-09-01T03:05:02;5.20;;;4.67;;
4674;SDS011;2351;50.812;12.872;2022-09-01T03:07:34;10.63;;;5.10;;
4674;SDS011;2351;50.812;12.872;2022-09-01T03:10:07;6.53;;;4.53;;
4674;SDS011;2351;50.812;12.872;2022-09-01T03:12:40;11.50;;;4.80;;
4674;SDS011;2351;50.812;12.872;2022-09-01T03:15:12;5.77;;;4.57;;
4674;SDS011;2351;50.812;12.872;2022-09-01T03:17:44;8.77;;;5.20;;
4674;SDS011;2351;50.812;12.872;2022-09-01T03:20:17;6.77;;;4.57;;
4674;SDS011;2351;50.812;12.872;2022-09-01T03:22:50;6.73;;;4.30;;
4674;SDS011;2351;50.812;12.872;2022-09-01T03:25:22;7.73;;;4.87;;
4674;SDS011;2351;50.812;12.872;2022-09-01T03:27:55;8.33;;;4.33;;
4674;SDS011;2351;50.812;12.872;2022-09-01T03:30:31;6.10;;;3.87;;
4674;SDS011;2351;50.812;12.872;2022-09-01T03:33:04;13.27;;;5.43;;
4674;SDS011;2351;50.812;12.872;2022-09-01T03:35:37;7.73;;;4.57;;
4674;SDS011;2351;50.812;12.872;2022-09-01T03:38:08;5.90;;;4.97;;
4674;SDS011;2351;50.812;12.872;2022-09-01T03:40:41;12.83;;;5.23;;
4674;SDS011;2351;50.812;12.872;2022-09-01T03:43:15;5.27;;;4.07;;
4674;SDS011;2351;50.812;12.872;2022-09-01T03:45:49;7.73;;;4.90;;
4674;SDS011;2351;50.812;12.872;2022-09-01T03:48:21;7.67;;;4.73;;
4674;SDS011;2351;50.812;12.872;2022-09-01T03:50:56;8.37;;;4.53;;
4674;SDS011;2351;50.812;12.872;2022-09-01T03:53:32;6.90;;;5.20;;
4674;SDS011;2351;50.812;12.872;2022-09-01T03:56:06;8.70;;;5.10;;
4674;SDS011;2351;50.812;12.872;2022-09-01T03:58:40;7.50;;;5.30;;
4674;SDS011;2351;50.812;12.872;2022-09-01T04:01:16;7.83;;;4.80;;
4674;SDS011;2351;50.812;12.872;2022-09-01T04:03:48;5.40;;;4.27;;
4674;SDS011;2351;50.812;12.872;2022-09-01T04:06:21;7.03;;;4.40;;
4674;SDS011;2351;50.812;12.872;2022-09-01T04:08:53;7.23;;;4.70;;
4674;SDS011;2351;50.812;12.872;2022-09-01T04:11:25;6.30;;;5.07;;
4674;SDS011;2351;50.812;12.872;2022-09-01T04:13:59;8.63;;;5.27;;
4674;SDS011;2351;50.812;12.872;2022-09-01T04:16:32;5.13;;;4.63;;
4674;SDS011;2351;50.812;12.872;2022-09-01T04:19:24;7.40;;;4.60;;
4674;SDS011;2351;50.812;12.872;2022-09-01T04:21:57;7.00;;;4.90;;
4674;SDS011;2351;50.812;12.872;2022-09-01T04:24:31;7.47;;;5.80;;
4674;SDS011;2351;50.812;12.872;2022-09-01T04:27:03;6.57;;;4.43;;
4674;SDS011;2351;50.812;12.872;2022-09-01T04:29:37;6.70;;;4.57;;
4674;SDS011;2351;50.812;12.872;2022-09-01T04:32:10;5.33;;;4.37;;
4674;SDS011;2351;50.812;12.872;2022-09-01T04:34:42;6.80;;;5.30;;
4674;SDS011;2351;50.812;12.872;2022-09-01T04:37:15;8.93;;;5.20;;
4674;SDS011;2351;50.812;12.872;2022-09-01T04:39:50;7.47;;;5.00;;
4674;SDS011;2351;50.812;12.872;2022-09-01T04:42:23;5.13;;;4.20;;
4674;SDS011;2351;50.812;12.872;2022-09-01T04:45:00;6.87;;;4.63;;
4674;SDS011;2351;50.812;12.872;2022-09-01T04:47:33;5.97;;;4.43;;
4674;SDS011;2351;50.812;12.872;2022-09-01T04:50:07;5.63;;;4.70;;
4674;SDS011;2351;50.812;12.872;2022-09-01T04:52:43;9.27;;;5.90;;
4674;SDS011;2351;50.812;12.872;2022-09-01T04:55:16;8.87;;;5.60;;
4674;SDS011;2351;50.812;12.872;2022-09-01T04:57:48;10.33;;;5.77;;
4674;SDS011;2351;50.812;12.872;2022-09-01T05:00:22;7.97;;;5.50;;
4674;SDS011;2351;50.812;12.872;2022-09-01T05:02:58;8.03;;;5.37;;
4674;SDS011;2351;50.812;12.872;2022-09-01T05:05:36;8.80;;;6.10;;
4674;SDS011;2351;50.812;12.872;2022-09-01T05:08:13;7.30;;;5.20;;
4674;SDS011;2351;50.812;12.872;2022-09-01T05:10:47;11.07;;;5.77;;
4674;SDS011;2351;50.812;12.872;2022-09-01T05:13:21;11.33;;;6.47;;
4674;SDS011;2351;50.812;12.872;2022-09-01T05:16:00;8.40;;;5.00;;
4674;SDS011;2351;50.812;12.872;2022-09-01T05:18:33;11.40;;;5.90;;
4674;SDS011;2351;50.812;12.872;2022-09-01T05:21:05;9.27;;;5.93;;
4674;SDS011;2351;50.812;12.872;2022-09-01T05:23:39;8.90;;;6.53;;
4674;SDS011;2351;50.812;12.872;2022-09-01T05:26:11;10.83;;;5.00;;
4674;SDS011;2351;50.812;12.872;2022-09-01T05:28:47;10.93;;;7.03;;
4674;SDS011;2351;50.812;12.872;2022-09-01T05:31:25;9.03;;;6.33;;
4674;SDS011;2351;50.812;12.872;2022-09-01T05:33:58;13.70;;;5.40;;
4674;SDS011;2351;50.812;12.872;2022-09-01T05:36:30;7.50;;;5.97;;
4674;SDS011;2351;50.812;12.872;2022-09-01T05:39:03;7.20;;;5.80;;
4674;SDS011;2351;50.812;12.872;2022-09-01T05:41:36;11.30;;;7.33;;
4674;SDS011;2351;50.812;12.872;2022-09-01T05:44:10;9.50;;;5.80;;
4674;SDS011;2351;50.812;12.872;2022-09-01T05:46:44;8.47;;;6.30;;
4674;SDS011;2351;50.812;12.872;2022-09-01T05:49:16;8.97;;;5.90;;
4674;SDS011;2351;50.812;12.872;2022-09-01T05:51:49;8.80;;;5.10;;
4674;SDS011;2351;50.812;12.872;2022-09-01T05:54:23;8.63;;;6.20;;
4674;SDS011;2351;50.812;12.872;2022-09-01T05:56:56;8.20;;;5.90;;
4674;SDS011;2351;50.812;12.872;2022-09-01T05:59:28;8.10;;;5.93;;
4674;SDS011;2351;50.812;12.872;2022-09-01T06:02:03;9.70;;;5.93;;
4674;SDS011;2351;50.812;12.872;2022-09-01T06:04:38;23.43;;;6.90;;
4674;SDS011;2351;50.812;12.872;2022-09-01T06:07:13;11.60;;;6.97;;
4674;SDS011;2351;50.812;12.872;2022-09-01T06:09:46;10.07;;;5.77;;
4674;SDS011;2351;50.812;12.872;2022-09-01T06:12:18;9.93;;;6.43;;
4674;SDS011;2351;50.812;12.872;2022-09-01T06:14:53;9.27;;;6.80;;
4674;SDS011;2351;50.812;12.872;2022-09-01T06:17:27;11.67;;;6.70;;
4674;SDS011;2351;50.812;12.872;2022-09-01T06:19:59;17.33;;;6.80;;
4674;SDS011;2351;50.812;12.872;2022-09-01T06:22:39;8.80;;;6.27;;
4674;SDS011;2351;50.812;12.872;2022-09-01T06:25:11;11.50;;;7.13;;
4674;SDS011;2351;50.812;12.872;2022-09-01T06:27:43;7.97;;;5.70;;
4674;SDS011;2351;50.812;12.872;2022-09-01T06:30:17;14.37;;;7.50;;
4674;SDS011;2351;50.812;12.872;2022-09-01T06:32:56;11.77;;;6.50;;
4674;SDS011;2351;50.812;12.872;2022-09-01T06:35:30;15.93;;;7.30;;
4674;SDS011;2351;50.812;12.872;2022-09-01T06:38:02;19.17;;;6.70;;
4674;SDS011;2351;50.812;12.872;2022-09-01T06:40:34;11.33;;;6.57;;
4674;SDS011;2351;50.812;12.872;2022-09-01T06:43:10;10.93;;;6.93;;
4674;SDS011;2351;50.812;12.872;2022-09-01T06:45:45;18.77;;;7.47;;
4674;SDS011;2351;50.812;12.872;2022-09-01T06:48:20;9.13;;;6.27;;
4674;SDS011;2351;50.812;12.872;2022-09-01T06:50:52;14.10;;;7.70;;
4674;SDS011;2351;50.812;12.872;2022-09-01T06:53:24;14.80;;;7.37;;
4674;SDS011;2351;50.812;12.872;2022-09-01T06:55:56;7.80;;;7.00;;
4674;SDS011;2351;50.812;12.872;2022-09-01T06:58:28;9.70;;;6.80;;
4674;SDS011;2351;50.812;12.872;2022-09-01T07:01:04;8.13;;;6.20;;
4674;SDS011;2351;50.812;12.872;2022-09-01T07:03:38;9.73;;;6.47;;
4674;SDS011;2351;50.812;12.872;2022-09-01T07:06:10;13.33;;;6.30;;
4674;SDS011;2351;50.812;12.872;2022-09-01T07:08:44;13.60;;;8.10;;
4674;SDS011;2351;50.812;12.872;2022-09-01T07:11:19;14.57;;;8.90;;
4674;SDS011;2351;50.812;12.872;2022-09-01T07:13:56;23.57;;;8.70;;
4674;SDS011;2351;50.812;12.872;2022-09-01T07:16:31;18.70;;;9.40;;
4674;SDS011;2351;50.812;12.872;2022-09-01T07:19:10;15.27;;;7.70;;
4674;SDS011;2351;50.812;12.872;2022-09-01T07:21:44;19.50;;;7.53;;
4674;SDS011;2351;50.812;12.872;2022-09-01T07:24:15;10.97;;;6.53;;
4674;SDS011;2351;50.812;12.872;2022-09-01T07:26:49;13.60;;;6.40;;
4674;SDS011;2351;50.812;12.872;2022-09-01T07:29:21;7.77;;;5.30;;
4674;SDS011;2351;50.812;12.872;2022-09-01T07:31:55;9.03;;;5.60;;
4674;SDS011;2351;50.812;12.872;2022-09-01T07:34:28;23.53;;;5.23;;
4674;SDS011;2351;50.812;12.872;2022-09-01T07:37:00;10.43;;;4.70;;
4674;SDS011;2351;50.812;12.872;2022-09-01T07:39:32;7.50;;;4.60;;
4674;SDS011;2351;50.812;12.872;2022-09-01T07:42:04;6.17;;;4.23;;
4674;SDS011;2351;50.812;12.872;2022-09-01T07:44:40;6.47;;;4.43;;
4674;SDS011;2351;50.812;12.872;2022-09-01T07:47:14;4.97;;;4.37;;
4674;SDS011;2351;50.812;12.872;2022-09-01T07:49:48;7.07;;;4.60;;
4674;SDS011;2351;50.812;12.872;2022-09-01T07:52:19;5.50;;;3.83;;
4674;SDS011;2351;50.812;12.872;2022-09-01T07:54:51;3.93;;;3.17;;
4674;SDS011;2351;50.812;12.872;2022-09-01T07:57:22;10.33;;;3.17;;
4674;SDS011;2351;50.812;12.872;2022-09-01T07:59:54;8.20;;;3.77;;
4674;SDS011;2351;50.812;12.872;2022-09-01T08:02:26;3.20;;;2.80;;
4674;SDS011;2351;50.812;12.872;2022-09-01T08:04:59;4.07;;;2.33;;
4674;SDS011;2351;50.812;12.872;2022-09-01T08:07:31;7.03;;;3.43;;
4674;SDS011;2351;50.812;12.872;2022-09-01T08:10:04;4.43;;;2.97;;
4674;SDS011;2351;50.812;12.872;2022-09-01T08:12:37;4.80;;;3.10;;
4674;SDS011;2351;50.812;12.872;2022-09-01T08:15:09;3.10;;;2.30;;
4674;SDS011;2351;50.812;12.872;2022-09-01T08:17:42;3.70;;;3.07;;
4674;SDS011;2351;50.812;12.872;2022-09-01T08:20:16;3.60;;;2.30;;
4674;SDS011;2351;50.812;12.872;2022-09-01T08:22:48;3.70;;;1.97;;
4674;SDS011;2351;50.812;12.872;2022-09-01T08:25:19;2.47;;;2.27;;
4674;SDS011;2351;50.812;12.872;2022-09-01T08:27:51;2.87;;;2.20;;
4674;SDS011;2351;50.812;12.872;2022-09-01T08:30:22;2.20;;;1.73;;
4674;SDS011;2351;50.812;12.872;2022-09-01T08:32:54;2.17;;;1.60;;
4674;SDS011;2351;50.812;12.872;2022-09-01T08:35:28;2.30;;;1.80;;
4674;SDS011;2351;50.812;12.872;2022-09-01T08:37:59;2.00;;;1.43;;
4674;SDS011;2351;50.812;12.872;2022-09-01T08:40:31;1.63;;;1.43;;
4674;SDS011;2351;50.812;12.872;2022-09-01T08:43:06;2.07;;;1.97;;
4674;SDS011;2351;50.812;12.872;2022-09-01T08:45:45;2.70;;;2.07;;
4674;SDS011;2351;50.812;12.872;2022-09-01T08:48:20;4.00;;;1.83;;
4674;SDS011;2351;50.812;12.872;2022-09-01T08:50:58;2.30;;;1.60;;
4674;SDS011;2351;50.812;12.872;2022-09-01T08:53:39;6.33;;;2.60;;
4674;SDS011;2351;50.812;12.872;2022-09-01T08:56:14;4.03;;;2.80;;
4674;SDS011;2351;50.812;12.872;2022-09-01T08:58:49;2.70;;;2.13;;
4674;SDS011;2351;50.812;12.872;2022-09-01T09:01:21;3.10;;;2.43;;
4674;SDS011;2351;50.812;12.872;2022-09-01T09:04:03;2.30;;;1.90;;
4674;SDS011;2351;50.812;12.872;2022-09-01T09:06:51;3.00;;;2.60;;
4674;SDS011;2351;50.812;12.872;2022-09-01T09:09:32;4.57;;;2.73;;
4674;SDS011;2351;50.812;12.872;2022-09-01T09:12:12;3.40;;;2.50;;
4674;SDS011;2351;50.812;12.872;2022-09-01T09:15:03;3.40;;;3.00;;
4674;SDS011;2351;50.812;12.872;2022-09-01T09:17:45;2.67;;;2.30;;
4674;SDS011;2351;50.812;12.872;2022-09-01T09:20:23;4.03;;;2.60;;
4674;SDS011;2351;50.812;12.872;2022-09-01T09:22:56;3.60;;;2.50;;
4674;SDS011;2351;50.812;12.872;2022-09-01T09:25:28;2.23;;;2.00;;
4674;SDS011;2351;50.812;12.872;2022-09-01T09:28:00;2.00;;;1.80;;
4674;SDS011;2351;50.812;12.872;2022-09-01T09:30:32;5.53;;;2.63;;
4674;SDS011;2351;50.812;12.872;2022-09-01T09:33:04;12.20;;;3.67;;
4674;SDS011;2351;50.812;12.872;2022-09-01T09:35:40;3.73;;;2.13;;
4674;SDS011;2351;50.812;12.872;2022-09-01T09:38:16;2.80;;;2.43;;
4674;SDS011;2351;50.812;12.872;2022-09-01T09:40:58;3.23;;;1.77;;
4674;SDS011;2351;50.812;12.872;2022-09-01T09:43:32;2.57;;;1.70;;
4674;SDS011;2351;50.812;12.872;2022-09-01T09:46:21;6.63;;;2.50;;
4674;SDS011;2351;50.812;12.872;2022-09-01T09:49:05;3.80;;;2.33;;
4674;SDS011;2351;50.812;12.872;2022-09-01T09:51:43;5.97;;;1.70;;
4674;SDS011;2351;50.812;12.872;2022-09-01T09:54:21;1.57;;;1.40;;
4674;SDS011;2351;50.812;12.872;2022-09-01T09:57:02;1.23;;;1.13;;
4674;SDS011;2351;50.812;12.872;2022-09-01T09:59:40;3.03;;;1.20;;
4674;SDS011;2351;50.812;12.872;2022-09-01T10:02:23;1.63;;;1.20;;
4674;SDS011;2351;50.812;12.872;2022-09-01T10:04:57;18.90;;;1.30;;
4674;SDS011;2351;50.812;12.872;2022-09-01T10:07:31;6.43;;;1.33;;
4674;SDS011;2351;50.812;12.872;2022-09-01T10:10:06;1.80;;;1.50;;
4674;SDS011;2351;50.812;12.872;2022-09-01T10:12:57;6.50;;;1.37;;
4674;SDS011;2351;50.812;12.872;2022-09-01T10:15:31;2.27;;;1.30;;
4674;SDS011;2351;50.812;12.872;2022-09-01T10:18:05;1.60;;;1.27;;
4674;SDS011;2351;50.812;12.872;2022-09-01T10:20:43;4.43;;;1.30;;
4674;SDS011;2351;50.812;12.872;2022-09-01T10:23:19;1.03;;;0.93;;
4674;SDS011;2351;50.812;12.872;2022-09-01T10:25:52;4.07;;;1.40;;
4674;SDS011;2351;50.812;12.872;2022-09-01T10:28:28;2.03;;;1.33;;
4674;SDS011;2351;50.812;12.872;2022-09-01T10:31:02;3.33;;;1.00;;
4674;SDS011;2351;50.812;12.872;2022-09-01T10:33:34;1.03;;;1.03;;
4674;SDS011;2351;50.812;12.872;2022-09-01T10:36:06;1.33;;;1.23;;
4674;SDS011;2351;50.812;12.872;2022-09-01T10:38:38;2.07;;;1.20;;
4674;SDS011;2351;50.812;12.872;2022-09-01T10:41:25;0.90;;;0.77;;
4674;SDS011;2351;50.812;12.872;2022-09-01T10:44:17;1.00;;;0.90;;
4674;SDS011;2351;50.812;12.872;2022-09-01T10:46:51;1.10;;;1.00;;
4674;SDS011;2351;50.812;12.872;2022-09-01T10:55:35;1.63;;;0.83;;
4674;SDS011;2351;50.812;12.872;2022-09-01T11:01:10;1.07;;;0.97;;
4674;SDS011;2351;50.812;12.872;2022-09-01T11:06:32;2.53;;;1.20;;
4674;SDS011;2351;50.812;12.872;2022-09-01T11:09:16;0.90;;;0.63;;
4674;SDS011;2351;50.812;12.872;2022-09-01T11:15:03;1.23;;;0.93;;
4674;SDS011;2351;50.812;12.872;2022-09-01T11:17:37;1.90;;;1.27;;
4674;SDS011;2351;50.812;12.872;2022-09-01T11:20:25;7.03;;;0.97;;
4674;SDS011;2351;50.812;12.872;2022-09-01T11:22:59;0.70;;;0.70;;
4674;SDS011;2351;50.812;12.872;2022-09-01T11:25:35;0.70;;;0.70;;
4674;SDS011;2351;50.812;12.872;2022-09-01T11:31:17;0.60;;;0.60;;
4674;SDS011;2351;50.812;12.872;2022-09-01T11:34:12;2.20;;;1.03;;
4674;SDS011;2351;50.812;12.872;2022-09-01T11:36:57;0.77;;;0.77;;
4674;SDS011;2351;50.812;12.872;2022-09-01T11:39:34;0.87;;;0.70;;
4674;SDS011;2351;50.812;12.872;2022-09-01T11:42:10;0.90;;;0.80;;
4674;SDS011;2351;50.812;12.872;2022-09-01T11:44:48;2.50;;;0.70;;
4674;SDS011;2351;50.812;12.872;2022-09-01T11:47:29;5.03;;;0.90;;
4674;SDS011;2351;50.812;12.872;2022-09-01T11:50:03;0.77;;;0.77;;
4674;SDS011;2351;50.812;12.872;2022-09-01T11:52:37;0.83;;;0.70;;
4674;SDS011;2351;50.812;12.872;2022-09-01T11:55:10;1.00;;;0.80;;
4674;SDS011;2351;50.812;12.872;2022-09-01T11:57:42;0.93;;;0.70;;
4674;SDS011;2351;50.812;12.872;2022-09-01T12:00:15;0.80;;;0.63;;
4674;SDS011;2351;50.812;12.872;2022-09-01T12:02:58;2.50;;;0.70;;
4674;SDS011;2351;50.812;12.872;2022-09-01T12:05:32;1.90;;;0.93;;
4674;SDS011;2351;50.812;12.872;2022-09-01T12:08:12;0.80;;;0.63;;
4674;SDS011;2351;50.812;12.872;2022-09-01T12:10:45;2.50;;;1.20;;
4674;SDS011;2351;50.812;12.872;2022-09-01T12:13:18;1.23;;;1.10;;
4674;SDS011;2351;50.812;12.872;2022-09-01T12:15:52;1.07;;;0.90;;
4674;SDS011;2351;50.812;12.872;2022-09-01T12:18:26;2.93;;;1.10;;
4674;SDS011;2351;50.812;12.872;2022-09-01T12:21:01;2.77;;;1.17;;
4674;SDS011;2351;50.812;12.872;2022-09-01T12:23:35;1.13;;;0.67;;
4674;SDS011;2351;50.812;12.872;2022-09-01T12:26:10;1.30;;;1.00;;
4674;SDS011;2351;50.812;12.872;2022-09-01T12:28:44;3.67;;;0.70;;
4674;SDS011;2351;50.812;12.872;2022-09-01T12:31:19;1.00;;;1.00;;
4674;SDS011;2351;50.812;12.872;2022-09-01T12:33:55;0.67;;;0.60;;
4674;SDS011;2351;50.812;12.872;2022-09-01T12:36:27;0.70;;;0.70;;
4674;SDS011;2351;50.812;12.872;2022-09-01T12:42:00;3.63;;;1.73;;
4674;SDS011;2351;50.812;12.872;2022-09-01T12:44:41;0.77;;;0.77;;
4674;SDS011;2351;50.812;12.872;2022-09-01T12:50:34;0.90;;;0.77;;
4674;SDS011;2351;50.812;12.872;2022-09-01T12:53:13;1.83;;;1.10;;
4674;SDS011;2351;50.812;12.872;2022-09-01T12:59:03;1.17;;;0.80;;
4674;SDS011;2351;50.812;12.872;2022-09-01T13:01:37;1.70;;;1.07;;
4674;SDS011;2351;50.812;12.872;2022-09-01T13:04:12;0.97;;;0.93;;
4674;SDS011;2351;50.812;12.872;2022-09-01T13:06:48;2.30;;;0.93;;
4674;SDS011;2351;50.812;12.872;2022-09-01T13:09:20;1.27;;;1.10;;
4674;SDS011;2351;50.812;12.872;2022-09-01T13:11:51;2.43;;;1.10;;
4674;SDS011;2351;50.812;12.872;2022-09-01T13:14:23;1.87;;;1.00;;
4674;SDS011;2351;50.812;12.872;2022-09-01T13:16:55;1.80;;;0.90;;
4674;SDS011;2351;50.812;12.872;2022-09-01T13:19:26;2.40;;;1.20;;
4674;SDS011;2351;50.812;12.872;2022-09-01T13:21:59;1.80;;;1.00;;
4674;SDS011;2351;50.812;12.872;2022-09-01T13:24:31;2.10;;;1.20;;
4674;SDS011;2351;50.812;12.872;2022-09-01T13:27:02;2.93;;;1.03;;
4674;SDS011;2351;50.812;12.872;2022-09-01T13:29:34;2.40;;;1.03;;
4674;SDS011;2351;50.812;12.872;2022-09-01T13:32:06;1.63;;;0.80;;
4674;SDS011;2351;50.812;12.872;2022-09-01T13:34:38;1.30;;;0.90;;
4674;SDS011;2351;50.812;12.872;2022-09-01T13:37:11;1.00;;;0.87;;
4674;SDS011;2351;50.812;12.872;2022-09-01T13:39:43;0.87;;;0.87;;
4674;SDS011;2351;50.812;12.872;2022-09-01T13:42:16;0.73;;;0.73;;
4674;SDS011;2351;50.812;12.872;2022-09-01T13:44:48;5.50;;;1.07;;
4674;SDS011;2351;50.812;12.872;2022-09-01T13:47:20;0.70;;;0.60;;
4674;SDS011;2351;50.812;12.872;2022-09-01T13:49:53;3.00;;;1.20;;
4674;SDS011;2351;50.812;12.872;2022-09-01T13:52:26;0.70;;;0.63;;
4674;SDS011;2351;50.812;12.872;2022-09-01T13:54:58;4.20;;;1.43;;
4674;SDS011;2351;50.812;12.872;2022-09-01T13:57:30;1.37;;;1.27;;
4674;SDS011;2351;50.812;12.872;2022-09-01T14:00:04;1.77;;;0.70;;
4674;SDS011;2351;50.812;12.872;2022-09-01T14:02:39;0.70;;;0.70;;
4674;SDS011;2351;50.812;12.872;2022-09-01T14:05:18;1.50;;;1.20;;
4674;SDS011;2351;50.812;12.872;2022-09-01T14:07:53;3.40;;;1.27;;
4674;SDS011;2351;50.812;12.872;2022-09-01T14:10:26;0.97;;;0.87;;
4674;SDS011;2351;50.812;12.872;2022-09-01T14:12:59;0.73;;;0.73;;
4674;SDS011;2351;50.812;12.872;2022-09-01T14:15:31;1.50;;;0.77;;
4674;SDS011;2351;50.812;12.872;2022-09-01T14:18:03;2.30;;;1.17;;
4674;SDS011;2351;50.812;12.872;2022-09-01T14:20:37;1.60;;;0.93;;
4674;SDS011;2351;50.812;12.872;2022-09-01T14:23:12;1.20;;;1.10;;
4674;SDS011;2351;50.812;12.872;2022-09-01T14:25:45;1.00;;;1.00;;
4674;SDS011;2351;50.812;12.872;2022-09-01T14:28:19;1.17;;;0.80;;
4674;SDS011;2351;50.812;12.872;2022-09-01T14:30:52;1.63;;;1.00;;
4674;SDS011;2351;50.812;12.872;2022-09-01T14:33:24;0.87;;;0.87;;
4674;SDS011;2351;50.812;12.872;2022-09-01T14:35:56;1.20;;;0.80;;
4674;SDS011;2351;50.812;12.872;2022-09-01T14:38:29;1.17;;;0.90;;
4674;SDS011;2351;50.812;12.872;2022-09-01T14:41:00;1.83;;;1.00;;
4674;SDS011;2351;50.812;12.872;2022-09-01T14:43:32;0.80;;;0.67;;
4674;SDS011;2351;50.812;12.872;2022-09-01T14:46:04;1.43;;;0.90;;
4674;SDS011;2351;50.812;12.872;2022-09-01T14:48:39;0.57;;;0.57;;
4674;SDS011;2351;50.812;12.872;2022-09-01T14:51:16;1.53;;;1.10;;
4674;SDS011;2351;50.812;12.872;2022-09-01T14:53:52;0.77;;;0.70;;
4674;SDS011;2351;50.812;12.872;2022-09-01T14:56:25;3.27;;;1.00;;
4674;SDS011;2351;50.812;12.872;2022-09-01T14:58:56;0.90;;;0.77;;
4674;SDS011;2351;50.812;12.872;2022-09-01T15:01:29;0.80;;;0.70;;
4674;SDS011;2351;50.812;12.872;2022-09-01T15:04:02;1.10;;;0.70;;
4674;SDS011;2351;50.812;12.872;2022-09-01T15:06:34;0.97;;;0.97;;
4674;SDS011;2351;50.812;12.872;2022-09-01T15:09:07;0.70;;;0.70;;
4674;SDS011;2351;50.812;12.872;2022-09-01T15:11:39;9.23;;;1.20;;
4674;SDS011;2351;50.812;12.872;2022-09-01T15:14:11;1.30;;;1.03;;
4674;SDS011;2351;50.812;12.872;2022-09-01T15:16:43;0.83;;;0.83;;
4674;SDS011;2351;50.812;12.872;2022-09-01T15:19:16;1.30;;;0.90;;
4674;SDS011;2351;50.812;12.872;2022-09-01T15:21:47;1.07;;;0.83;;
4674;SDS011;2351;50.812;12.872;2022-09-01T15:24:20;1.03;;;1.03;;
4674;SDS011;2351;50.812;12.872;2022-09-01T15:26:52;0.83;;;0.83;;
4674;SDS011;2351;50.812;12.872;2022-09-01T15:29:24;1.03;;;0.93;;
4674;SDS011;2351;50.812;12.872;2022-09-01T15:31:55;1.73;;;1.07;;
4674;SDS011;2351;50.812;12.872;2022-09-01T15:34:27;1.23;;;1.13;;
4674;SDS011;2351;50.812;12.872;2022-09-01T15:36:58;8.70;;;1.27;;
4674;SDS011;2351;50.812;12.872;2022-09-01T15:39:31;1.67;;;1.37;;
4674;SDS011;2351;50.812;12.872;2022-09-01T15:42:03;1.10;;;0.97;;
4674;SDS011;2351;50.812;12.872;2022-09-01T15:44:35;1.43;;;1.03;;
4674;SDS011;2351;50.812;12.872;2022-09-01T15:47:06;1.30;;;1.20;;
4674;SDS011;2351;50.812;12.872;2022-09-01T15:49:38;2.67;;;1.50;;
4674;SDS011;2351;50.812;12.872;2022-09-01T15:52:10;1.83;;;1.10;;
4674;SDS011;2351;50.812;12.872;2022-09-01T15:54:43;2.20;;;0.93;;
4674;SDS011;2351;50.812;12.872;2022-09-01T15:57:14;1.27;;;0.80;;
4674;SDS011;2351;50.812;12.872;2022-09-01T15:59:47;3.80;;;0.67;;
4674;SDS011;2351;50.812;12.872;2022-09-01T16:02:18;5.70;;;0.93;;
4674;SDS011;2351;50.812;12.872;2022-09-01T16:04:52;0.90;;;0.80;;
4674;SDS011;2351;50.812;12.872;2022-09-01T16:07:25;0.80;;;0.80;;
4674;SDS011;2351;50.812;12.872;2022-09-01T16:09:58;1.00;;;0.70;;